Terminal Aerodrome Forecast
Issued by NWS

Home | Current Version | Previous Version | Graphics & Text | Print | Product List | Glossary On
Versions: 1 2 3 4 5 6 7 8 9 10 11 12
000
FTUS43 KBIS 221700
TAFJMS
TAF
KJMS 221738Z 2218/2318 31006KT P6SM -SHRA OVC080
     FM222000 29012KT P6SM BKN100
     FM230000 23008KT P6SM SCT250=

USA.gov is the U.S. government's official web portal to all federal, state and local government web resources and services.